Time;durP1;ratioP1;P1;durP2;ratioP2;P2;SDS_P1;SDS_P2;PMS_P1;PMS_P2;Temp;Humidity;BMP_temperature;BMP_pressure;BME280_temperature;BME280_humidity;BME280_pressure;Samples;Min_cycle;Max_cycle;Signal;HPM_P1;HPM_P2
2022/12/26 00:01:28;;;;;;;20.23;18.05;;;;;;;;;;5050541;28;20413;-83
2022/12/26 00:03:55;;;;;;;22.50;19.45;;;;;;;;;;5052338;28;20385;-83
2022/12/26 00:06:23;;;;;;;19.63;17.70;;;;;;;;;;5052339;28;20855;-83
2022/12/26 00:08:49;;;;;;;18.13;16.50;;;;;;;;;;5034464;28;20385;-83
2022/12/26 00:11:15;;;;;;;19.77;17.85;;;;;;;;;;5052362;28;20491;-84
2022/12/26 00:13:41;;;;;;;18.63;16.92;;;;;;;;;;5052165;28;20385;-84
2022/12/26 00:16:12;;;;;;;17.65;16.05;;;;;;;;;;5051991;28;20938;-82
2022/12/26 00:18:38;;;;;;;17.30;15.73;;;;;;;;;;5052050;28;20382;-83
2022/12/26 00:21:04;;;;;;;16.27;14.88;;;;;;;;;;5051282;28;20767;-85
2022/12/26 00:23:31;;;;;;;16.75;15.25;;;;;;;;;;5049571;28;20460;-84
2022/12/26 00:26:01;;;;;;;16.63;15.23;;;;;;;;;;5051568;28;20383;-84
2022/12/26 00:28:27;;;;;;;16.50;15.13;;;;;;;;;;5053621;28;20373;-84
2022/12/26 00:30:53;;;;;;;16.63;15.18;;;;;;;;;;5053572;28;20386;-84
2022/12/26 00:33:19;;;;;;;16.83;15.32;;;;;;;;;;5053586;28;20859;-84
2022/12/26 00:35:45;;;;;;;16.30;14.82;;;;;;;;;;5034582;28;20424;-84
2022/12/26 00:38:11;;;;;;;17.35;15.68;;;;;;;;;;5053089;28;20916;-85
2022/12/26 00:40:42;;;;;;;18.42;16.65;;;;;;;;;;5052273;28;20417;-85
2022/12/26 00:43:08;;;;;;;17.60;15.90;;;;;;;;;;5049748;28;20373;-84
2022/12/26 00:45:34;;;;;;;18.42;16.63;;;;;;;;;;5064800;28;20372;-85
2022/12/26 00:48:00;;;;;;;17.65;16.05;;;;;;;;;;5053298;28;20374;-84
2022/12/26 00:50:26;;;;;;;20.95;18.75;;;;;;;;;;5053224;28;20392;-84
2022/12/26 00:52:54;;;;;;;19.45;17.63;;;;;;;;;;5053309;28;20432;-84
2022/12/26 00:55:20;;;;;;;19.27;17.33;;;;;;;;;;5038688;28;20764;-84
2022/12/26 00:57:46;;;;;;;20.70;18.58;;;;;;;;;;5032034;28;20383;-84
2022/12/26 01:00:12;;;;;;;23.30;19.80;;;;;;;;;;5034120;28;20502;-83
2022/12/26 01:02:38;;;;;;;20.83;18.88;;;;;;;;;;5035410;28;20398;-85
2022/12/26 01:05:08;;;;;;;21.45;19.15;;;;;;;;;;5033044;28;20379;-85
2022/12/26 01:07:35;;;;;;;19.90;17.88;;;;;;;;;;5048275;28;20750;-84
2022/12/26 01:10:01;;;;;;;20.00;17.90;;;;;;;;;;5048782;28;20490;-84
2022/12/26 01:12:27;;;;;;;17.77;16.20;;;;;;;;;;5049400;28;20394;-84
2022/12/26 01:14:56;;;;;;;18.20;16.60;;;;;;;;;;5051016;28;20397;-84
2022/12/26 01:17:22;;;;;;;17.77;16.23;;;;;;;;;;5048579;28;20386;-83
2022/12/26 01:19:51;;;;;;;17.02;15.52;;;;;;;;;;5050805;28;20409;-83
2022/12/26 01:22:17;;;;;;;16.83;15.35;;;;;;;;;;5050792;28;20385;-85
2022/12/26 01:24:43;;;;;;;16.02;14.73;;;;;;;;;;5051028;28;20803;-85
2022/12/26 01:27:09;;;;;;;16.05;14.75;;;;;;;;;;5050891;28;20373;-85
2022/12/26 01:29:35;;;;;;;15.93;14.52;;;;;;;;;;5050790;28;20924;-84
2022/12/26 01:32:01;;;;;;;17.73;16.00;;;;;;;;;;5049861;28;20493;-84
2022/12/26 01:34:27;;;;;;;16.73;15.20;;;;;;;;;;5050830;28;20802;-84
2022/12/26 01:36:53;;;;;;;16.45;15.13;;;;;;;;;;5050931;28;20377;-85
2022/12/26 01:39:19;;;;;;;21.48;19.33;;;;;;;;;;5036837;28;20434;-84
2022/12/26 01:41:46;;;;;;;28.97;23.63;;;;;;;;;;5035499;28;20412;-83
2022/12/26 01:44:30;;;;;;;17.67;16.08;;;;;;;;;;5035215;28;20386;-84
2022/12/26 01:46:56;;;;;;;16.85;15.35;;;;;;;;;;5040036;28;20383;-84
2022/12/26 01:49:40;;;;;;;16.73;15.27;;;;;;;;;;5039036;28;20905;-84
2022/12/26 01:52:09;;;;;;;16.77;15.27;;;;;;;;;;5031851;28;20486;-84
2022/12/26 01:54:37;;;;;;;16.65;15.15;;;;;;;;;;5038501;28;20743;-84
2022/12/26 01:57:04;;;;;;;19.05;17.25;;;;;;;;;;5051935;28;20381;-85
2022/12/26 01:59:32;;;;;;;19.77;17.80;;;;;;;;;;5051539;28;20444;-85
2022/12/26 02:01:59;;;;;;;19.70;17.80;;;;;;;;;;5052197;28;20808;-84
2022/12/26 02:07:15;;;;;;;17.93;16.33;;;;;;;;;;5052269;28;20409;-84
2022/12/26 02:09:41;;;;;;;18.15;16.45;;;;;;;;;;5051709;28;20388;-85
2022/12/26 02:12:19;;;;;;;17.80;16.00;;;;;;;;;;5051928;28;20378;-84
2022/12/26 02:14:45;;;;;;;19.48;17.60;;;;;;;;;;5051704;28;20385;-84
2022/12/26 02:17:12;;;;;;;21.60;19.40;;;;;;;;;;5033848;28;20873;-85
2022/12/26 02:19:40;;;;;;;21.75;19.45;;;;;;;;;;5051646;28;20492;-84
2022/12/26 02:22:21;;;;;;;21.65;19.35;;;;;;;;;;5051780;28;20385;-84
2022/12/26 02:25:06;;;;;;;23.90;20.27;;;;;;;;;;5051583;28;20742;-84
2022/12/26 02:27:44;;;;;;;20.67;18.55;;;;;;;;;;5051783;28;20369;-84
2022/12/26 02:30:22;;;;;;;21.17;18.95;;;;;;;;;;5051459;28;20400;-85
2022/12/26 02:32:56;;;;;;;20.02;18.00;;;;;;;;;;5044789;28;20413;-84
2022/12/26 02:35:37;;;;;;;21.95;19.63;;;;;;;;;;5051534;28;20484;-84
2022/12/26 02:38:25;;;;;;;18.85;17.05;;;;;;;;;;5050826;28;20401;-84
2022/12/26 02:41:09;;;;;;;18.80;17.00;;;;;;;;;;5047462;28;20981;-85
2022/12/26 02:43:35;;;;;;;20.20;18.15;;;;;;;;;;5053113;28;20472;-84
2022/12/26 02:48:58;;;;;;;18.90;17.00;;;;;;;;;;5055709;28;20365;-85
2022/12/26 03:14:22;;;;;;;16.50;15.00;;;;;;;;;;5045570;28;20378;-84
2022/12/26 03:19:56;;;;;;;16.30;14.95;;;;;;;;;;5040565;28;20401;-84
2022/12/26 03:22:32;;;;;;;16.20;14.88;;;;;;;;;;5053649;28;20432;-85
2022/12/26 03:27:48;;;;;;;16.67;15.18;;;;;;;;;;5056386;28;20412;-84
2022/12/26 03:32:58;;;;;;;16.95;15.35;;;;;;;;;;5044093;28;20402;-83
2022/12/26 03:35:26;;;;;;;18.33;16.63;;;;;;;;;;5046757;28;20393;-83
2022/12/26 03:37:55;;;;;;;20.30;18.20;;;;;;;;;;5046272;28;20441;-84
2022/12/26 04:20:39;;;;;;;14.40;13.20;;;;;;;;;;5038462;28;20903;-84
2022/12/26 04:46:01;;;;;;;13.50;12.48;;;;;;;;;;5042426;28;20465;-84
2022/12/26 04:51:13;;;;;;;13.80;12.70;;;;;;;;;;5040529;28;20415;-84
2022/12/26 04:53:39;;;;;;;13.40;12.35;;;;;;;;;;5048238;28;20379;-84
2022/12/26 04:56:05;;;;;;;13.70;12.57;;;;;;;;;;5050559;28;20377;-84
2022/12/26 04:58:31;;;;;;;14.25;13.15;;;;;;;;;;5030612;28;20935;-84
2022/12/26 05:09:32;;;;;;;14.18;13.07;;;;;;;;;;5052503;28;20516;-84
2022/12/26 05:11:58;;;;;;;11.93;11.00;;;;;;;;;;5053203;28;20400;-84
2022/12/26 05:14:24;;;;;;;12.88;11.98;;;;;;;;;;5052950;28;20409;-84
2022/12/26 05:30:42;;;;;;;10.38;9.60;;;;;;;;;;5052574;28;20533;-84
2022/12/26 05:35:52;;;;;;;8.88;8.27;;;;;;;;;;5052555;28;20420;-84
2022/12/26 05:38:18;;;;;;;10.45;9.75;;;;;;;;;;5052480;28;20850;-83
2022/12/26 05:40:44;;;;;;;9.87;9.07;;;;;;;;;;5052291;28;20417;-84
2022/12/26 05:43:10;;;;;;;10.07;9.20;;;;;;;;;;5044280;28;20380;-84
2022/12/26 05:45:36;;;;;;;9.95;9.25;;;;;;;;;;5052255;28;20905;-83
2022/12/26 05:48:02;;;;;;;9.32;8.73;;;;;;;;;;5052347;28;20378;-84
2022/12/26 05:50:28;;;;;;;9.43;8.82;;;;;;;;;;5052164;28;20377;-84
2022/12/26 05:52:58;;;;;;;10.23;9.52;;;;;;;;;;5052153;28;20377;-84
2022/12/26 05:55:24;;;;;;;13.23;9.63;;;;;;;;;;5052223;28;20444;-85
2022/12/26 05:57:50;;;;;;;10.93;10.13;;;;;;;;;;5050983;28;20389;-85
2022/12/26 06:00:16;;;;;;;11.05;10.35;;;;;;;;;;5042053;28;20779;-83
2022/12/26 06:02:42;;;;;;;11.50;10.70;;;;;;;;;;5038675;28;20385;-84
2022/12/26 06:05:09;;;;;;;11.98;10.82;;;;;;;;;;5045086;28;20378;-83
2022/12/26 06:07:35;;;;;;;10.75;10.02;;;;;;;;;;5050052;28;20381;-84
2022/12/26 06:10:01;;;;;;;12.27;11.38;;;;;;;;;;5050192;28;20393;-84
2022/12/26 06:12:27;;;;;;;12.53;11.63;;;;;;;;;;5050860;28;20504;-84
2022/12/26 06:14:53;;;;;;;12.48;11.25;;;;;;;;;;5050360;28;20386;-84
2022/12/26 06:17:19;;;;;;;11.27;10.38;;;;;;;;;;5050682;28;20385;-84
2022/12/26 06:19:45;;;;;;;11.40;10.50;;;;;;;;;;5050497;28;20405;-84
2022/12/26 06:22:11;;;;;;;10.98;10.25;;;;;;;;;;5051737;28;20385;-83
2022/12/26 06:24:36;;;;;;;10.98;10.18;;;;;;;;;;5051675;28;20412;-84
2022/12/26 06:27:03;;;;;;;10.65;9.95;;;;;;;;;;5051663;28;20435;-84
2022/12/26 06:29:29;;;;;;;9.90;9.18;;;;;;;;;;5051626;28;20396;-84
2022/12/26 06:31:55;;;;;;;10.65;9.95;;;;;;;;;;5033673;28;20867;-83
2022/12/26 06:34:21;;;;;;;11.50;10.60;;;;;;;;;;5051587;28;20385;-83
2022/12/26 06:36:46;;;;;;;10.15;9.40;;;;;;;;;;5051386;28;20389;-84
2022/12/26 06:39:12;;;;;;;11.35;10.45;;;;;;;;;;5051395;28;20386;-84
2022/12/26 06:41:39;;;;;;;10.43;9.73;;;;;;;;;;5051485;28;20879;-84
2022/12/26 06:44:05;;;;;;;10.55;9.85;;;;;;;;;;5051407;28;20385;-84
2022/12/26 06:46:31;;;;;;;11.32;10.23;;;;;;;;;;5051493;28;20404;-84
2022/12/26 06:48:56;;;;;;;11.32;10.32;;;;;;;;;;5049165;28;20468;-84
2022/12/26 06:51:24;;;;;;;12.77;10.98;;;;;;;;;;5051519;28;20468;-83
2022/12/26 06:53:50;;;;;;;11.00;10.20;;;;;;;;;;5051455;28;20377;-84
2022/12/26 06:56:16;;;;;;;11.02;10.23;;;;;;;;;;5051390;28;20416;-84
2022/12/26 06:58:42;;;;;;;11.10;10.30;;;;;;;;;;5048568;28;20421;-84
2022/12/26 07:01:14;;;;;;;10.75;10.00;;;;;;;;;;5047803;28;20421;-84
2022/12/26 07:03:41;;;;;;;10.50;9.70;;;;;;;;;;5047089;28;20377;-84
2022/12/26 07:06:10;;;;;;;9.93;9.23;;;;;;;;;;5050743;28;20474;-84
2022/12/26 07:08:36;;;;;;;10.10;9.40;;;;;;;;;;5050857;28;20377;-84
2022/12/26 07:11:02;;;;;;;9.93;9.23;;;;;;;;;;5050602;28;20793;-84
2022/12/26 07:13:28;;;;;;;11.07;10.27;;;;;;;;;;5050887;28;20384;-84
2022/12/26 07:15:54;;;;;;;10.40;9.70;;;;;;;;;;5047231;28;20412;-84
2022/12/26 07:18:20;;;;;;;9.88;9.18;;;;;;;;;;5037293;28;20464;-84
2022/12/26 07:20:46;;;;;;;10.07;9.38;;;;;;;;;;5050829;28;20505;-84
2022/12/26 07:23:12;;;;;;;9.57;8.88;;;;;;;;;;5051063;28;20380;-84
2022/12/26 07:25:38;;;;;;;9.53;8.77;;;;;;;;;;5051158;28;20432;-84
2022/12/26 07:28:04;;;;;;;9.10;8.50;;;;;;;;;;5033088;28;20385;-84
2022/12/26 07:30:30;;;;;;;8.68;8.07;;;;;;;;;;5051636;28;20381;-84
2022/12/26 07:32:56;;;;;;;8.70;8.10;;;;;;;;;;5054811;28;20935;-84
2022/12/26 07:35:22;;;;;;;8.77;8.18;;;;;;;;;;5054868;28;20381;-84
2022/12/26 07:37:48;;;;;;;8.70;8.10;;;;;;;;;;5051870;28;20389;-84
2022/12/26 07:40:14;;;;;;;8.82;8.23;;;;;;;;;;5054537;28;20405;-84
2022/12/26 07:42:40;;;;;;;8.95;8.35;;;;;;;;;;5054653;28;20901;-84
2022/12/26 07:45:07;;;;;;;9.38;8.57;;;;;;;;;;5054579;28;20377;-84
2022/12/26 07:47:33;;;;;;;10.05;9.25;;;;;;;;;;5054464;28;20373;-85
2022/12/26 07:49:59;;;;;;;10.43;9.63;;;;;;;;;;5053272;28;20884;-84
2022/12/26 07:52:25;;;;;;;14.70;10.95;;;;;;;;;;5037876;28;20374;-86
2022/12/26 07:54:51;;;;;;;10.38;9.57;;;;;;;;;;5054446;28;20805;-85
2022/12/26 07:57:17;;;;;;;9.75;9.05;;;;;;;;;;5054289;28;20468;-86
2022/12/26 07:59:43;;;;;;;10.88;10.07;;;;;;;;;;5054070;28;20475;-85
2022/12/26 08:02:10;;;;;;;9.90;9.20;;;;;;;;;;5054343;28;20370;-85
2022/12/26 08:04:36;;;;;;;9.10;8.40;;;;;;;;;;5054207;28;20742;-84
2022/12/26 08:07:02;;;;;;;9.63;8.93;;;;;;;;;;5052892;28;20381;-85
2022/12/26 08:09:27;;;;;;;10.27;9.38;;;;;;;;;;5053399;28;20392;-86
2022/12/26 08:11:54;;;;;;;10.68;9.77;;;;;;;;;;5053664;28;20413;-86
2022/12/26 08:14:19;;;;;;;11.13;10.23;;;;;;;;;;5053658;28;20457;-85
2022/12/26 08:16:46;;;;;;;13.80;12.33;;;;;;;;;;5053744;28;20800;-87
2022/12/26 08:19:12;;;;;;;15.52;13.93;;;;;;;;;;5053988;28;20385;-85
2022/12/26 08:21:38;;;;;;;16.38;14.98;;;;;;;;;;5053988;28;20747;-86
2022/12/26 08:24:04;;;;;;;14.80;13.52;;;;;;;;;;5053980;28;20385;-86
2022/12/26 08:26:30;;;;;;;12.43;11.43;;;;;;;;;;5053850;28;20385;-85
2022/12/26 08:28:56;;;;;;;13.45;12.20;;;;;;;;;;5053842;28;20443;-85
2022/12/26 08:31:22;;;;;;;14.73;13.38;;;;;;;;;;5053756;28;20405;-85
2022/12/26 08:33:48;;;;;;;15.18;13.65;;;;;;;;;;5053869;28;20381;-86
2022/12/26 08:36:18;;;;;;;15.27;13.70;;;;;;;;;;5053797;28;20820;-86
2022/12/26 08:38:44;;;;;;;14.83;13.43;;;;;;;;;;5053614;28;20385;-86
2022/12/26 08:41:10;;;;;;;14.15;12.85;;;;;;;;;;5053138;28;20412;-86
2022/12/26 08:43:36;;;;;;;15.05;13.55;;;;;;;;;;5053518;28;20851;-86
2022/12/26 08:46:04;;;;;;;12.38;11.38;;;;;;;;;;5053602;28;20370;-87
2022/12/26 08:48:30;;;;;;;12.38;11.35;;;;;;;;;;5045931;28;20391;-86
2022/12/26 08:50:57;;;;;;;113.45;54.83;;;;;;;;;;5051761;28;20890;-87
2022/12/26 08:53:23;;;;;;;14.50;13.20;;;;;;;;;;5053333;28;20390;-86
2022/12/26 08:55:49;;;;;;;13.02;12.05;;;;;;;;;;5053330;28;20385;-87
2022/12/26 08:58:15;;;;;;;10.27;9.52;;;;;;;;;;5051561;28;20464;-86
2022/12/26 09:00:42;;;;;;;10.82;9.93;;;;;;;;;;5052813;28;20421;-86
2022/12/26 09:03:08;;;;;;;10.77;9.98;;;;;;;;;;5053137;28;20369;-85
2022/12/26 09:05:34;;;;;;;10.40;9.70;;;;;;;;;;5053175;28;20435;-87
2022/12/26 09:08:00;;;;;;;10.82;10.02;;;;;;;;;;5052862;28;20373;-86
2022/12/26 09:10:26;;;;;;;9.90;9.10;;;;;;;;;;5047761;28;20412;-87
2022/12/26 09:12:52;;;;;;;10.45;9.65;;;;;;;;;;5052893;28;20385;-86
2022/12/26 09:15:18;;;;;;;11.15;10.35;;;;;;;;;;5052340;28;20386;-87
2022/12/26 09:17:44;;;;;;;12.50;11.50;;;;;;;;;;5039920;28;20390;-86
2022/12/26 09:20:10;;;;;;;11.40;10.50;;;;;;;;;;5041845;28;20407;-85
2022/12/26 09:22:51;;;;;;;12.00;11.10;;;;;;;;;;5036307;28;20398;-86
2022/12/26 09:25:18;;;;;;;11.70;10.75;;;;;;;;;;5051715;28;20454;-85
2022/12/26 09:27:44;;;;;;;10.23;9.43;;;;;;;;;;5052319;28;20384;-86
2022/12/26 09:30:10;;;;;;;10.50;9.60;;;;;;;;;;5052563;28;20482;-85
2022/12/26 09:32:36;;;;;;;9.30;8.60;;;;;;;;;;5052528;28;20389;-87
2022/12/26 09:35:02;;;;;;;8.83;8.13;;;;;;;;;;5052456;28;20381;-87
2022/12/26 09:37:28;;;;;;;8.50;7.90;;;;;;;;;;5052552;28;20863;-86
2022/12/26 09:39:54;;;;;;;8.85;8.15;;;;;;;;;;5052235;28;20413;-87
2022/12/26 09:42:43;;;;;;;9.25;8.63;;;;;;;;;;5052403;28;20389;-86
2022/12/26 09:45:16;;;;;;;10.40;9.60;;;;;;;;;;5034757;28;20374;-85
2022/12/26 09:48:00;;;;;;;11.20;10.38;;;;;;;;;;5043157;28;20739;-86
2022/12/26 09:50:31;;;;;;;15.68;14.38;;;;;;;;;;5046565;28;20439;-86
2022/12/26 09:53:03;;;;;;;16.90;15.40;;;;;;;;;;5051628;28;20382;-87
2022/12/26 09:55:29;;;;;;;14.52;13.32;;;;;;;;;;5053890;28;20431;-86
2022/12/26 09:57:58;;;;;;;13.87;12.77;;;;;;;;;;5052178;28;20947;-86
2022/12/26 10:00:26;;;;;;;12.83;11.87;;;;;;;;;;5052086;28;20457;-87
2022/12/26 10:02:54;;;;;;;12.98;11.98;;;;;;;;;;5050913;28;20381;-87
2022/12/26 10:05:21;;;;;;;12.85;11.88;;;;;;;;;;5041108;28;20418;-86
2022/12/26 10:07:53;;;;;;;13.15;12.15;;;;;;;;;;5041194;28;20385;-86
2022/12/26 10:10:25;;;;;;;13.20;12.10;;;;;;;;;;5041746;28;20386;-85
2022/12/26 10:13:04;;;;;;;14.52;13.32;;;;;;;;;;5051933;28;20408;-86
2022/12/26 10:15:47;;;;;;;12.88;11.88;;;;;;;;;;5050477;28;20523;-86
2022/12/26 10:18:19;;;;;;;14.43;13.23;;;;;;;;;;5051045;28;20426;-86
2022/12/26 10:21:04;;;;;;;14.35;13.25;;;;;;;;;;5050312;28;20409;-86
2022/12/26 10:23:34;;;;;;;15.05;13.75;;;;;;;;;;5047529;28;20901;-87
2022/12/26 10:26:13;;;;;;;18.25;16.55;;;;;;;;;;5048398;28;20424;-85
2022/12/26 10:28:45;;;;;;;15.85;14.40;;;;;;;;;;5051332;28;20377;-85
2022/12/26 10:31:17;;;;;;;15.25;13.95;;;;;;;;;;5051322;28;20461;-86
2022/12/26 10:33:50;;;;;;;15.80;14.43;;;;;;;;;;5050301;28;20863;-86
2022/12/26 10:36:21;;;;;;;16.97;15.27;;;;;;;;;;5049644;28;20393;-86
2022/12/26 10:38:48;;;;;;;16.50;15.02;;;;;;;;;;5049482;28;20389;-85
2022/12/26 10:41:26;;;;;;;16.08;14.65;;;;;;;;;;5032856;28;20438;-86
2022/12/26 10:43:53;;;;;;;17.40;15.90;;;;;;;;;;5044291;28;20412;-86
2022/12/26 10:46:31;;;;;;;17.58;15.98;;;;;;;;;;5050061;28;20385;-86
2022/12/26 10:48:57;;;;;;;17.70;16.10;;;;;;;;;;5033836;28;20391;-86
2022/12/26 10:51:24;;;;;;;18.52;16.70;;;;;;;;;;5050546;28;20425;-87
2022/12/26 10:53:51;;;;;;;19.95;17.33;;;;;;;;;;5050811;28;20424;-87
2022/12/26 10:56:17;;;;;;;17.87;16.17;;;;;;;;;;5051334;28;20417;-86
2022/12/26 10:58:43;;;;;;;19.25;16.88;;;;;;;;;;5051265;28;20382;-86
2022/12/26 11:01:28;;;;;;;16.67;14.95;;;;;;;;;;5049442;28;20421;-88
2022/12/26 11:03:56;;;;;;;17.23;15.43;;;;;;;;;;5043673;28;21574;-86
2022/12/26 11:06:33;;;;;;;17.10;15.33;;;;;;;;;;5055104;28;20411;-85
2022/12/26 11:08:59;;;;;;;15.52;13.93;;;;;;;;;;5055203;28;20460;-86
2022/12/26 11:11:44;;;;;;;16.43;14.73;;;;;;;;;;5049928;28;20425;-86
2022/12/26 11:14:29;;;;;;;17.45;13.93;;;;;;;;;;5054791;28;20382;-86
2022/12/26 11:16:57;;;;;;;16.27;13.93;;;;;;;;;;5053711;28;20369;-86
2022/12/26 11:19:30;;;;;;;19.48;17.23;;;;;;;;;;5046287;28;20441;-85
2022/12/26 11:22:14;;;;;;;15.35;13.75;;;;;;;;;;5055459;28;20463;-86
2022/12/26 11:24:40;;;;;;;14.82;13.43;;;;;;;;;;5055122;28;20381;-86
2022/12/26 11:27:17;;;;;;;13.90;12.57;;;;;;;;;;5055111;28;20389;-86
2022/12/26 11:29:43;;;;;;;14.82;13.25;;;;;;;;;;5054904;28;20382;-87
2022/12/26 11:32:16;;;;;;;15.90;12.73;;;;;;;;;;5053089;28;20469;-87
2022/12/26 11:34:45;;;;;;;13.60;12.25;;;;;;;;;;5049989;28;20394;-87
2022/12/26 11:37:23;;;;;;;13.52;12.13;;;;;;;;;;5061915;28;20385;-88
2022/12/26 11:39:50;;;;;;;14.48;13.00;;;;;;;;;;5054608;28;20427;-87
2022/12/26 11:42:19;;;;;;;14.93;13.43;;;;;;;;;;5054872;28;20382;-87
2022/12/26 11:44:48;;;;;;;14.65;13.18;;;;;;;;;;5054716;28;20385;-86
2022/12/26 11:47:15;;;;;;;15.93;13.70;;;;;;;;;;5054660;28;20388;-86
2022/12/26 11:50:01;;;;;;;14.95;13.52;;;;;;;;;;5047920;28;20383;-87
2022/12/26 11:52:30;;;;;;;15.25;13.55;;;;;;;;;;5051452;28;20439;-87
2022/12/26 11:54:56;;;;;;;17.27;14.23;;;;;;;;;;5037000;28;20898;-87
2022/12/26 11:57:27;;;;;;;14.85;13.13;;;;;;;;;;5054467;28;20393;-87
2022/12/26 11:59:53;;;;;;;15.20;13.60;;;;;;;;;;5054132;28;20417;-86
2022/12/26 12:02:24;;;;;;;15.27;13.77;;;;;;;;;;5054426;28;20382;-86
2022/12/26 12:04:51;;;;;;;13.73;12.33;;;;;;;;;;5054458;28;20548;-86
2022/12/26 12:07:35;;;;;;;15.88;13.60;;;;;;;;;;5054377;28;20866;-86
2022/12/26 12:10:22;;;;;;;15.57;13.50;;;;;;;;;;5054242;28;20389;-86
2022/12/26 12:12:59;;;;;;;13.30;11.90;;;;;;;;;;5002357;28;20387;-87
2022/12/26 12:15:31;;;;;;;14.15;12.75;;;;;;;;;;5036256;28;20759;-87
2022/12/26 12:18:12;;;;;;;14.27;12.95;;;;;;;;;;5035827;28;20406;-85
2022/12/26 12:20:52;;;;;;;12.93;11.63;;;;;;;;;;5036101;28;20397;-87
2022/12/26 12:23:24;;;;;;;11.52;10.43;;;;;;;;;;5053928;28;20930;-86
2022/12/26 12:26:11;;;;;;;11.80;10.60;;;;;;;;;;5054045;28;20369;-87
2022/12/26 12:28:43;;;;;;;10.95;9.85;;;;;;;;;;5035944;28;20785;-86
2022/12/26 12:31:12;;;;;;;10.00;9.10;;;;;;;;;;5053715;28;20393;-86
2022/12/26 12:33:45;;;;;;;9.98;9.07;;;;;;;;;;5053704;28;20390;-86
2022/12/26 12:36:15;;;;;;;8.90;8.15;;;;;;;;;;5053765;28;20428;-86
2022/12/26 12:38:44;;;;;;;9.30;8.50;;;;;;;;;;5053865;28;20479;-86
2022/12/26 12:41:13;;;;;;;6.32;5.80;;;;;;;;;;5053521;28;20413;-86
2022/12/26 12:43:48;;;;;;;7.70;6.90;;;;;;;;;;5053468;28;20374;-87
2022/12/26 12:46:33;;;;;;;6.72;6.13;;;;;;;;;;5053526;28;20448;-87
2022/12/26 12:49:17;;;;;;;8.10;7.40;;;;;;;;;;5053322;28;20384;-87
2022/12/26 12:51:55;;;;;;;6.65;6.10;;;;;;;;;;5053453;28;20443;-86
2022/12/26 12:54:31;;;;;;;7.57;6.88;;;;;;;;;;5041189;28;20384;-86
2022/12/26 12:57:23;;;;;;;7.32;6.03;;;;;;;;;;5053422;28;20377;-88
2022/12/26 12:59:55;;;;;;;8.82;7.93;;;;;;;;;;5015113;28;20425;-88
2022/12/26 13:02:31;;;;;;;7.13;6.43;;;;;;;;;;5053244;28;20749;-87
2022/12/26 13:05:02;;;;;;;7.63;6.47;;;;;;;;;;5053163;28;20388;-87
2022/12/26 13:07:33;;;;;;;7.03;6.32;;;;;;;;;;5053393;28;20381;-87
2022/12/26 13:10:01;;;;;;;6.15;5.55;;;;;;;;;;5051253;28;20392;-87
2022/12/26 13:12:31;;;;;;;5.88;5.28;;;;;;;;;;5053072;28;20381;-87
2022/12/26 13:15:27;;;;;;;5.03;4.50;;;;;;;;;;5046877;28;20390;-86
2022/12/26 13:17:59;;;;;;;6.57;5.97;;;;;;;;;;5018041;28;20387;-87
2022/12/26 13:20:40;;;;;;;6.28;5.68;;;;;;;;;;5052828;28;20449;-86
2022/12/26 13:26:06;;;;;;;5.80;5.30;;;;;;;;;;5053097;28;20377;-87
2022/12/26 13:28:35;;;;;;;5.50;5.00;;;;;;;;;;5047053;28;20445;-87
2022/12/26 13:31:02;;;;;;;6.30;5.70;;;;;;;;;;5044932;28;20428;-87
2022/12/26 13:33:28;;;;;;;5.90;5.40;;;;;;;;;;5052628;28;20381;-86
2022/12/26 13:35:58;;;;;;;6.57;5.82;;;;;;;;;;5044391;28;20926;-86
2022/12/26 13:38:25;;;;;;;6.20;5.60;;;;;;;;;;5049611;28;20385;-88
2022/12/26 13:43:53;;;;;;;6.40;5.82;;;;;;;;;;5052411;28;20467;-87
2022/12/26 13:44:20;;;;;;;5.82;5.28;;;;;;;;;;5052246;28;20388;-87
2022/12/26 13:46:46;;;;;;;4.93;4.40;;;;;;;;;;4952186;29;20436;-87
2022/12/26 13:49:27;;;;;;;4.05;3.75;;;;;;;;;;5018280;28;20410;-87
2022/12/26 13:51:55;;;;;;;3.90;3.53;;;;;;;;;;5052204;28;20373;-86
2022/12/26 13:54:22;;;;;;;4.57;3.25;;;;;;;;;;5034337;28;20467;-87
2022/12/26 13:56:55;;;;;;;3.53;3.22;;;;;;;;;;5052306;28;20473;-89
2022/12/26 13:59:35;;;;;;;2.92;2.72;;;;;;;;;;5051877;28;20408;-87
2022/12/26 14:02:12;;;;;;;3.47;2.63;;;;;;;;;;5034336;28;20786;-86
2022/12/26 14:04:56;;;;;;;3.13;2.83;;;;;;;;;;5034484;28;20390;-87
2022/12/26 14:07:34;;;;;;;2.60;2.40;;;;;;;;;;5051975;28;20382;-88
2022/12/26 14:10:00;;;;;;;3.00;2.30;;;;;;;;;;5034123;28;20854;-87
2022/12/26 14:12:45;;;;;;;2.10;1.90;;;;;;;;;;5051999;28;20431;-87
2022/12/26 14:15:28;;;;;;;2.10;1.90;;;;;;;;;;5051960;28;20385;-87
2022/12/26 14:18:12;;;;;;;1.80;1.70;;;;;;;;;;5051919;28;20397;-88
2022/12/26 14:20:41;;;;;;;1.77;1.67;;;;;;;;;;5033925;28;20943;-87
2022/12/26 14:23:23;;;;;;;1.60;1.50;;;;;;;;;;5051859;28;20392;-88
2022/12/26 14:25:49;;;;;;;1.70;1.40;;;;;;;;;;5051878;28;20382;-87
2022/12/26 14:28:18;;;;;;;1.87;1.23;;;;;;;;;;5051834;28;20412;-87
2022/12/26 14:30:55;;;;;;;1.50;1.40;;;;;;;;;;5051651;28;20385;-86
2022/12/26 14:33:21;;;;;;;1.70;1.60;;;;;;;;;;5033894;28;20743;-87
2022/12/26 14:35:57;;;;;;;1.73;1.50;;;;;;;;;;5051696;28;20390;-87
2022/12/26 14:38:23;;;;;;;3.23;1.70;;;;;;;;;;5051680;28;20385;-87
2022/12/26 14:40:58;;;;;;;1.92;1.65;;;;;;;;;;5051089;28;20411;-87
2022/12/26 14:43:24;;;;;;;2.20;1.97;;;;;;;;;;5051565;28;20474;-87
2022/12/26 14:45:51;;;;;;;2.70;2.33;;;;;;;;;;5051476;28;20386;-88
2022/12/26 14:48:17;;;;;;;1.90;1.70;;;;;;;;;;5051586;28;20369;-87
2022/12/26 14:51:15;;;;;;;1.85;1.67;;;;;;;;;;5044869;28;20390;-87
2022/12/26 14:53:42;;;;;;;2.00;1.90;;;;;;;;;;5051428;28;20487;-86
2022/12/26 14:56:14;;;;;;;2.00;1.90;;;;;;;;;;5051377;28;20413;-87
2022/12/26 14:58:48;;;;;;;3.05;2.75;;;;;;;;;;5033510;28;20396;-87
2022/12/26 15:01:17;;;;;;;2.70;2.50;;;;;;;;;;5051092;28;20466;-87
2022/12/26 15:03:49;;;;;;;2.25;2.05;;;;;;;;;;5049750;28;20378;-87
2022/12/26 15:06:18;;;;;;;1.95;1.75;;;;;;;;;;5050847;28;20382;-87
2022/12/26 15:08:53;;;;;;;5.50;5.07;;;;;;;;;;5051287;28;20466;-88
2022/12/26 15:11:19;;;;;;;6.47;5.88;;;;;;;;;;5045490;28;20373;-88
2022/12/26 15:13:59;;;;;;;5.37;4.97;;;;;;;;;;5051303;28;20882;-86
2022/12/26 15:16:31;;;;;;;4.20;3.78;;;;;;;;;;5051192;28;20409;-87
2022/12/26 15:19:00;;;;;;;3.13;2.90;;;;;;;;;;5033390;28;20392;-88
2022/12/26 15:21:45;;;;;;;2.15;2.00;;;;;;;;;;5033613;28;20958;-88
2022/12/26 15:24:30;;;;;;;2.40;2.28;;;;;;;;;;5051173;28;20852;-87
2022/12/26 15:27:14;;;;;;;1.85;1.75;;;;;;;;;;5037829;28;20388;-87
2022/12/26 15:29:58;;;;;;;1.70;1.60;;;;;;;;;;5051035;28;20400;-87
2022/12/26 15:32:43;;;;;;;1.85;1.75;;;;;;;;;;5051175;28;20478;-87
2022/12/26 15:35:12;;;;;;;2.90;1.92;;;;;;;;;;5051007;28;20374;-87
2022/12/26 15:37:57;;;;;;;1.70;1.60;;;;;;;;;;5033274;28;20886;-86
2022/12/26 15:40:25;;;;;;;1.70;1.60;;;;;;;;;;5043167;28;20412;-86
2022/12/26 15:43:17;;;;;;;1.83;1.60;;;;;;;;;;5051126;28;20742;-87
2022/12/26 15:45:47;;;;;;;1.60;1.50;;;;;;;;;;5051005;28;20377;-86
2022/12/26 15:48:33;;;;;;;1.58;1.48;;;;;;;;;;5033152;28;20930;-86
2022/12/26 15:51:17;;;;;;;2.30;1.60;;;;;;;;;;5050941;28;20386;-88
2022/12/26 15:53:43;;;;;;;1.60;1.50;;;;;;;;;;5041882;28;20434;-87
2022/12/26 15:56:21;;;;;;;1.95;1.40;;;;;;;;;;5053862;28;20389;-88
2022/12/26 15:59:02;;;;;;;1.40;1.30;;;;;;;;;;5054528;28;20396;-87
2022/12/26 16:01:39;;;;;;;1.50;1.40;;;;;;;;;;5054256;28;20440;-87
2022/12/26 16:04:28;;;;;;;1.65;1.55;;;;;;;;;;5036766;28;20389;-87
2022/12/26 16:07:00;;;;;;;1.83;1.70;;;;;;;;;;5041367;28;20386;-87
2022/12/26 16:09:29;;;;;;;1.83;1.73;;;;;;;;;;5036603;28;20389;-88
2022/12/26 16:11:57;;;;;;;2.00;1.80;;;;;;;;;;5054364;28;20386;-87
2022/12/26 16:14:28;;;;;;;4.18;3.78;;;;;;;;;;5036835;28;20389;-86
2022/12/26 16:16:54;;;;;;;2.47;2.28;;;;;;;;;;5054249;28;20381;-86
2022/12/26 16:19:26;;;;;;;3.80;3.50;;;;;;;;;;5053985;28;20789;-87
2022/12/26 16:24:40;;;;;;;3.13;2.92;;;;;;;;;;5054266;28;20413;-87
2022/12/26 16:27:07;;;;;;;3.50;3.20;;;;;;;;;;5054080;28;20858;-88
2022/12/26 16:29:36;;;;;;;3.20;2.97;;;;;;;;;;5053745;28;20466;-88
2022/12/26 16:32:06;;;;;;;4.38;4.05;;;;;;;;;;5045148;28;20412;-88
2022/12/26 16:34:34;;;;;;;5.05;4.20;;;;;;;;;;5053767;28;20412;-86
2022/12/26 16:37:00;;;;;;;3.90;3.40;;;;;;;;;;5053749;28;20378;-87
2022/12/26 16:39:26;;;;;;;2.55;2.35;;;;;;;;;;5053683;28;20409;-87
2022/12/26 16:42:03;;;;;;;2.00;1.90;;;;;;;;;;5053666;28;20420;-87
2022/12/26 16:44:29;;;;;;;1.40;1.30;;;;;;;;;;5053639;28;20378;-88
2022/12/26 16:46:56;;;;;;;1.50;1.30;;;;;;;;;;5053656;28;20741;-87
2022/12/26 16:49:25;;;;;;;1.40;1.30;;;;;;;;;;5053312;28;20401;-87
2022/12/26 16:51:52;;;;;;;2.30;2.10;;;;;;;;;;5053620;28;20384;-86
2022/12/26 16:54:21;;;;;;;2.22;2.13;;;;;;;;;;5053424;28;20381;-86
2022/12/26 16:57:11;;;;;;;3.40;3.10;;;;;;;;;;5053516;28;20385;-87
2022/12/26 16:59:54;;;;;;;3.13;2.92;;;;;;;;;;5037212;28;20390;-86
2022/12/26 17:02:29;;;;;;;2.70;2.50;;;;;;;;;;5052953;28;20369;-87